»·PEaware :: SWA291 KTUS-KELP

SWA291 :: KTUS-KELP

FLIGHT INFORMATION

Flight Status: Arrived
Operator:
Southwest Airlines
More flights by this operator :: More flights under this callsign
Pilot: Alfonso U. (14209)
Aircraft: BOEING 737-800
(B738)
More flights by this aircraft type
Origin: KTUS Tucson Intl
United States
Destination: KELP El Paso Intl
United States
More flights between these airports :: More routes between these airports
Route: +WLDKT3 SSO TEEES MOLLY4
File this flight plan on PilotEdge
Remarks:
Altitude:
(Current/Filed)
27,000ft
Speed:
(Current/Filed)
500kts
Departed: 10-Jan-18 05:52 PM
Arrived: 10-Jan-18 06:39 PM
Distance/Time
Traveled:
232nm/0:46
Distance/Time
To Go:
Arrived

Flight Plot

Page will automatically refresh every two minutes.

Flight plan parsing failed; only flown route is shown


Map Options




Map Legend


Flown Route
Filed Route
Departure Airport
Arrival Airport
Navaid (VOR, NDB)
Fix

Horizontal Profiles

Position Reports

Time Latitude Longitude Heading Altitude Ground
Speed
10-Jan-18 17:02 32.123648 -110.945161 314 2651ft 0kts
10-Jan-18 17:03 32.123648 -110.945161 314 2651ft 0kts
10-Jan-18 17:04 32.123648 -110.945161 314 2651ft 0kts
10-Jan-18 17:05 32.123648 -110.945161 314 2651ft 0kts
10-Jan-18 17:06 32.123648 -110.945161 314 2651ft 0kts
10-Jan-18 17:07 32.123648 -110.945161 314 2651ft 0kts
10-Jan-18 17:08 32.123648 -110.945161 314 2651ft 0kts
10-Jan-18 17:09 32.123648 -110.945161 314 2651ft 0kts
10-Jan-18 17:10 32.123648 -110.945161 314 2651ft 0kts
10-Jan-18 17:11 32.123648 -110.945161 314 2651ft 0kts
10-Jan-18 17:12 32.123648 -110.945161 314 2651ft 0kts
10-Jan-18 17:13 32.123648 -110.945161 314 2651ft 0kts
10-Jan-18 17:14 32.123648 -110.945161 314 2651ft 0kts
10-Jan-18 17:15 32.123648 -110.945161 314 2651ft 0kts
10-Jan-18 17:16 32.123648 -110.945161 314 2651ft 0kts
10-Jan-18 17:17 32.123648 -110.945161 314 2651ft 0kts
10-Jan-18 17:18 32.123648 -110.945161 314 2651ft 0kts
10-Jan-18 17:19 32.123648 -110.945161 314 2651ft 0kts
10-Jan-18 17:20 32.123648 -110.945161 314 2651ft 0kts
10-Jan-18 17:21 32.123648 -110.945161 314 2651ft 0kts
10-Jan-18 17:22 32.123648 -110.945161 314 2651ft 0kts
10-Jan-18 17:23 32.123648 -110.945161 314 2651ft 0kts
10-Jan-18 17:24 32.123648 -110.945161 314 2651ft 0kts
10-Jan-18 17:25 32.123648 -110.945161 314 2651ft 0kts
10-Jan-18 17:26 32.123648 -110.945161 314 2651ft 0kts
10-Jan-18 17:27 32.123648 -110.945161 314 2651ft 0kts
10-Jan-18 17:28 32.123648 -110.945161 314 2651ft 0kts
10-Jan-18 17:29 32.123648 -110.945161 314 2651ft 0kts
10-Jan-18 17:30 32.123648 -110.945161 314 2651ft 0kts
10-Jan-18 17:31 32.123648 -110.945161 314 2651ft 0kts
10-Jan-18 17:32 32.123648 -110.945161 314 2651ft 0kts
10-Jan-18 17:33 32.123648 -110.945161 314 2651ft 0kts
10-Jan-18 17:34 32.123648 -110.945161 314 2651ft 0kts
10-Jan-18 17:35 32.123648 -110.945161 314 2651ft 0kts
10-Jan-18 17:36 32.123648 -110.945161 314 2651ft 0kts
10-Jan-18 17:37 32.123648 -110.945161 314 2651ft 0kts
10-Jan-18 17:38 32.123648 -110.945161 314 2651ft 0kts
10-Jan-18 17:39 32.123648 -110.945161 314 2651ft 0kts
10-Jan-18 17:40 32.123648 -110.945161 314 2651ft 0kts
10-Jan-18 17:41 32.123648 -110.945161 314 2651ft 0kts
10-Jan-18 17:42 32.123648 -110.945161 314 2651ft 0kts
10-Jan-18 17:43 32.123648 -110.945161 314 2651ft 0kts
10-Jan-18 17:44 32.123648 -110.945161 314 2651ft 0kts
10-Jan-18 17:45 32.123607 -110.945357 226 2651ft 3kts
10-Jan-18 17:46 32.121710 -110.944322 136 2651ft 9kts
10-Jan-18 17:47 32.118220 -110.940242 133 2651ft 23kts
10-Jan-18 17:48 32.114127 -110.935387 132 2651ft 25kts
10-Jan-18 17:49 32.109821 -110.930318 136 2651ft 18kts
10-Jan-18 17:50 32.106739 -110.926703 133 2651ft 9kts
10-Jan-18 17:51 32.103892 -110.923312 135 2651ft 13kts
10-Jan-18 17:52 32.102723 -110.922467 216 2651ft 0kts
10-Jan-18 17:53 32.102723 -110.922467 216 2651ft 0kts
10-Jan-18 17:54 32.102723 -110.922467 216 2651ft 0kts
10-Jan-18 17:55 32.102723 -110.922467 216 2651ft 0kts
10-Jan-18 17:56 32.102475 -110.922702 225 2651ft 7kts
10-Jan-18 17:57 32.102549 -110.923481 314 2651ft 0kts
10-Jan-18 17:58 32.119047 -110.942814 313 3244ft 162kts
10-Jan-18 17:59 32.155570 -110.985719 312 5582ft 219kts
10-Jan-18 18:00 32.205236 -111.042260 326 8236ft 271kts
10-Jan-18 18:01 32.274403 -111.017439 42 11708ft 311kts
10-Jan-18 18:02 32.308542 -110.909254 78 13426ft 398kts
10-Jan-18 18:03 32.317935 -110.774514 79 16071ft 421kts
10-Jan-18 18:04 32.327457 -110.634529 79 16978ft 429kts
10-Jan-18 18:05 32.328632 -110.492023 88 17036ft 439kts
10-Jan-18 18:06 32.321038 -110.346112 88 19509ft 451kts
10-Jan-18 18:07 32.313877 -110.195780 87 21733ft 465kts
10-Jan-18 18:08 32.307088 -110.040983 85 23716ft 476kts
10-Jan-18 18:09 32.299850 -109.883062 85 25495ft 487kts
10-Jan-18 18:10 32.292188 -109.721845 85 27054ft 492kts
10-Jan-18 18:11 32.284567 -109.561463 85 27056ft 487kts
10-Jan-18 18:12 32.276339 -109.399315 85 28077ft 495kts
10-Jan-18 18:13 32.268540 -109.237531 82 29031ft 490kts
10-Jan-18 18:14 32.270448 -109.077201 81 29031ft 487kts
10-Jan-18 18:15 32.271829 -108.917263 81 29025ft 487kts
10-Jan-18 18:16 32.273188 -108.757206 82 29017ft 488kts
10-Jan-18 18:17 32.274280 -108.596403 82 29009ft 489kts
10-Jan-18 18:18 32.275036 -108.436045 83 29004ft 489kts
10-Jan-18 18:19 32.275563 -108.274890 83 29000ft 490kts
10-Jan-18 18:20 32.275873 -108.116440 83 28995ft 476kts
10-Jan-18 18:21 32.276090 -107.964143 83 28985ft 436kts
10-Jan-18 18:22 32.276121 -107.823375 84 29003ft 445kts
10-Jan-18 18:23 32.255091 -107.672970 98 28999ft 471kts
10-Jan-18 18:24 32.224894 -107.522186 99 28995ft 470kts
10-Jan-18 18:25 32.194644 -107.372015 99 28981ft 471kts
10-Jan-18 18:26 32.164621 -107.221744 99 28657ft 460kts
10-Jan-18 18:27 32.134997 -107.074669 99 25166ft 472kts
10-Jan-18 18:28 32.104948 -106.926600 100 22328ft 455kts
10-Jan-18 18:29 32.075541 -106.783684 101 19565ft 439kts
10-Jan-18 18:30 32.045347 -106.646692 106 17006ft 423kts
10-Jan-18 18:31 32.012348 -106.517691 106 14874ft 400kts
10-Jan-18 18:32 31.982460 -106.400692 105 14165ft 348kts
10-Jan-18 18:33 31.956206 -106.297066 105 13237ft 320kts
10-Jan-18 18:34 31.931566 -106.200255 105 12272ft 297kts
10-Jan-18 18:35 31.908112 -106.107916 105 10830ft 291kts
10-Jan-18 18:36 31.875797 -106.025597 160 9334ft 266kts
10-Jan-18 18:37 31.809217 -106.024169 217 7927ft 226kts
10-Jan-18 18:38 31.788453 -106.085577 258 7036ft 194kts
10-Jan-18 18:39 31.781770 -106.140969 275 6419ft 156kts
10-Jan-18 18:40 31.786870 -106.191129 275 5265ft 144kts
10-Jan-18 18:41 31.791565 -106.235663 275 5255ft 136kts
10-Jan-18 18:42 31.796113 -106.278530 275 5265ft 140kts
10-Jan-18 18:43 31.798705 -106.321712 273 4657ft 130kts
10-Jan-18 18:44 31.800796 -106.364184 273 3975ft 128kts
10-Jan-18 18:45 31.801455 -106.377363 265 3966ft 5kts
10-Jan-18 18:46 31.800795 -106.377752 182 3966ft 0kts
10-Jan-18 18:47 31.799789 -106.378155 263 3966ft 5kts
10-Jan-18 18:48 31.799811 -106.379210 273 3966ft 7kts
10-Jan-18 18:49 31.799943 -106.382728 272 3966ft 12kts
10-Jan-18 18:50 31.800126 -106.387306 273 3966ft 14kts
10-Jan-18 18:51 31.801121 -106.391823 304 3966ft 17kts
10-Jan-18 18:52 31.800369 -106.393396 204 3966ft 0kts
10-Jan-18 18:53 31.800369 -106.393396 204 3966ft 0kts
10-Jan-18 18:54 31.800369 -106.393396 204 3966ft 0kts
10-Jan-18 18:55 31.800369 -106.393396 204 3966ft 0kts
10-Jan-18 18:56 31.800369 -106.393396 204 3966ft 0kts
10-Jan-18 18:57 31.800369 -106.393396 204 3966ft 0kts
10-Jan-18 18:58 31.800369 -106.393396 204 3966ft 0kts
10-Jan-18 18:59 31.800369 -106.393396 204 3966ft 0kts

Navigation Log

Ident Type
Flight plan parsing failed, navigation log unavailable